^^
Station Historical Data
 
Daily Summary for December 15, 2017 Units:  Both    English   Metric
« Previous Day
Next Day »
Daily Weekly Monthly Yearly Custom
  Current: High: Low: Average:
Temperature: 64.8 °F /  18.2 °C 69.6 °F /  20.9 °C 64.8 °F /  18.2 °C 67.4 °F /  19.7 °C
Dew Point: 36.5 °F /  2.5 °C 37.2 °F /  2.9 °C 35.8 °F /  2.1 °C 36.5 °F /  2.5 °C
Humidity: 35% 35% 29% 32%
Wind Speed: 0.0mph /  0km/h 2.9mph /  4.7km/h - 0.4mph /  0.6km/h
Wind Gust: 1.0mph /  1.6km/h 5.0mph /  8km/h - -
WindCalm - - West
Pressure: 29.70 in /  1005.6 hPa 29.74 in /  1007 hPa 29.70 in /  1005.6 hPa -
Precipitation: 0.00 in /  0 mm      
Historical Graphs
 
 
Tabular Data for December 15, 2017
Time Temperature Dew Point Pressure Wind Wind Speed Wind Gust Humidity Rainfall Rate (Hourly) solar Conditions
00:02 69.6 °F /  20.9 °C 36.0 °F /  2.2 °C 29.73in /  1006.7hPa WSW 0.9mph /  1.4km/h 4.0mph /  6.4km/h 29% 0.00in /  0mm 0.0 W/m2
00:07 69.4 °F /  20.8 °C 35.8 °F /  2.1 °C 29.73in /  1006.7hPa Calm   1.0mph /  1.6km/h 29% 0.00in /  0mm 0.0 W/m2
00:12 69.3 °F /  20.7 °C 36.5 °F /  2.5 °C 29.73in /  1006.7hPa Calm     30% 0.00in /  0mm 0.0 W/m2
00:17 69.3 °F /  20.7 °C 36.5 °F /  2.5 °C 29.73in /  1006.7hPa Calm   1.0mph /  1.6km/h 30% 0.00in /  0mm 0.0 W/m2
00:23 69.1 °F /  20.6 °C 36.3 °F /  2.4 °C 29.73in /  1006.7hPa Calm   1.0mph /  1.6km/h 30% 0.00in /  0mm 0.0 W/m2
00:28 68.7 °F /  20.4 °C 36.0 °F /  2.2 °C 29.74in /  1007hPa Calm   1.0mph /  1.6km/h 30% 0.00in /  0mm 0.0 W/m2
00:33 68.5 °F /  20.3 °C 36.0 °F /  2.2 °C 29.74in /  1007hPa Calm   3.0mph /  4.8km/h 30% 0.00in /  0mm 0.0 W/m2
00:39 68.4 °F /  20.2 °C 36.5 °F /  2.5 °C 29.73in /  1006.7hPa West 0.9mph /  1.4km/h 3.0mph /  4.8km/h 31% 0.00in /  0mm 0.0 W/m2
00:44 68.4 °F /  20.2 °C 36.5 °F /  2.5 °C 29.73in /  1006.7hPa Calm   1.0mph /  1.6km/h 31% 0.00in /  0mm 0.0 W/m2
00:49 68.4 °F /  20.2 °C 36.5 °F /  2.5 °C 29.73in /  1006.7hPa Calm   3.0mph /  4.8km/h 31% 0.00in /  0mm 0.0 W/m2
00:55 68.2 °F /  20.1 °C 36.3 °F /  2.4 °C 29.73in /  1006.7hPa West 2.0mph /  3.2km/h 4.0mph /  6.4km/h 31% 0.00in /  0mm 0.0 W/m2
01:00 68.0 °F /  20 °C 36.3 °F /  2.4 °C 29.73in /  1006.7hPa West 2.9mph /  4.7km/h 3.0mph /  4.8km/h 31% 0.00in /  0mm 0.0 W/m2
01:05 67.8 °F /  19.9 °C 36.1 °F /  2.3 °C 29.73in /  1006.7hPa Calm   1.0mph /  1.6km/h 31% 0.00in /  0mm 0.0 W/m2
01:10 67.6 °F /  19.8 °C 36.7 °F /  2.6 °C 29.72in /  1006.3hPa WSW 0.9mph /  1.4km/h 5.0mph /  8km/h 32% 0.00in /  0mm 0.0 W/m2
01:15 67.5 °F /  19.7 °C 36.5 °F /  2.5 °C 29.72in /  1006.3hPa West 0.9mph /  1.4km/h 1.0mph /  1.6km/h 32% 0.00in /  0mm 0.0 W/m2
01:21 67.5 °F /  19.7 °C 36.5 °F /  2.5 °C 29.72in /  1006.3hPa Calm   2.0mph /  3.2km/h 32% 0.00in /  0mm 0.0 W/m2
01:26 67.3 °F /  19.6 °C 36.5 °F /  2.5 °C 29.72in /  1006.3hPa WSW 2.0mph /  3.2km/h 2.0mph /  3.2km/h 32% 0.00in /  0mm 0.0 W/m2
01:31 67.3 °F /  19.6 °C 36.5 °F /  2.5 °C 29.72in /  1006.3hPa Calm   2.0mph /  3.2km/h 32% 0.00in /  0mm 0.0 W/m2
01:37 66.9 °F /  19.4 °C 36.1 °F /  2.3 °C 29.72in /  1006.3hPa Calm   1.0mph /  1.6km/h 32% 0.00in /  0mm 0.0 W/m2
01:42 66.9 °F /  19.4 °C 36.9 °F /  2.7 °C 29.72in /  1006.3hPa WSW 0.9mph /  1.4km/h 1.0mph /  1.6km/h 33% 0.00in /  0mm 0.0 W/m2
01:47 66.7 °F /  19.3 °C 36.7 °F /  2.6 °C 29.71in /  1006hPa Calm   2.0mph /  3.2km/h 33% 0.00in /  0mm 0.0 W/m2
01:53 66.7 °F /  19.3 °C 36.7 °F /  2.6 °C 29.71in /  1006hPa Calm   2.0mph /  3.2km/h 33% 0.00in /  0mm 0.0 W/m2
01:58 66.6 °F /  19.2 °C 36.5 °F /  2.5 °C 29.70in /  1005.6hPa Calm   1.0mph /  1.6km/h 33% 0.00in /  0mm 0.0 W/m2
02:03 66.4 °F /  19.1 °C 36.3 °F /  2.4 °C 29.70in /  1005.6hPa Calm   3.0mph /  4.8km/h 33% 0.00in /  0mm 0.0 W/m2
02:08 66.4 °F /  19.1 °C 36.3 °F /  2.4 °C 29.70in /  1005.6hPa Calm   1.0mph /  1.6km/h 33% 0.00in /  0mm 0.0 W/m2
02:13 66.2 °F /  19 °C 37.0 °F /  2.8 °C 29.70in /  1005.6hPa Calm   1.0mph /  1.6km/h 34% 0.00in /  0mm 0.0 W/m2
02:18 66.0 °F /  18.9 °C 36.9 °F /  2.7 °C 29.70in /  1005.6hPa Calm     34% 0.00in /  0mm 0.0 W/m2
02:24 65.8 °F /  18.8 °C 36.7 °F /  2.6 °C 29.70in /  1005.6hPa Calm   1.0mph /  1.6km/h 34% 0.00in /  0mm 0.0 W/m2
02:29 65.7 °F /  18.7 °C 37.2 °F /  2.9 °C 29.70in /  1005.6hPa Calm   2.0mph /  3.2km/h 35% 0.00in /  0mm 0.0 W/m2
02:34 65.5 °F /  18.6 °C 37.0 °F /  2.8 °C 29.70in /  1005.6hPa Calm   1.0mph /  1.6km/h 35% 0.00in /  0mm 0.0 W/m2
02:39 65.1 °F /  18.4 °C 36.9 °F /  2.7 °C 29.70in /  1005.6hPa Calm   1.0mph /  1.6km/h 35% 0.00in /  0mm 0.0 W/m2
02:45 64.8 °F /  18.2 °C 36.5 °F /  2.5 °C 29.70in /  1005.6hPa Calm   1.0mph /  1.6km/h 35% 0.00in /  0mm 0.0 W/m2
Olympia, Windhoek, Namibia
Compliments of Weather Underground - 2 mb